createdAt,value
2017-07-03T07:12:48.269Z,8968
2017-07-03T07:13:48.952Z,8612
2017-07-03T07:14:49.640Z,8928
2017-07-03T07:15:50.329Z,13152
2017-07-03T07:16:51.019Z,49088
2017-07-03T07:17:51.715Z,90368
2017-07-03T07:18:52.408Z,94336
2017-07-03T07:19:53.098Z,93600
2017-07-03T07:20:53.762Z,90560
2017-07-03T07:21:54.462Z,90208
2017-07-03T07:22:55.125Z,96576
2017-07-03T07:23:55.820Z,96576
2017-07-03T07:24:56.522Z,93504
2017-07-03T07:25:57.190Z,88448
2017-07-03T07:26:57.890Z,90112
2017-07-03T07:27:58.560Z,91488
2017-07-03T07:28:59.267Z,90560
2017-07-03T07:29:59.969Z,86432
2017-07-03T07:31:00.678Z,89792
2017-07-03T07:32:01.374Z,90464
2017-07-03T07:33:02.085Z,89472
2017-07-03T07:34:02.786Z,90720
2017-07-03T07:35:03.462Z,88608
2017-07-03T07:36:04.171Z,83200
2017-07-03T07:37:04.882Z,86528
2017-07-03T07:38:05.585Z,83424
2017-07-03T07:39:06.263Z,88512
2017-07-03T07:40:06.970Z,93376
2017-07-03T07:41:07.680Z,92960
2017-07-03T07:42:08.391Z,91360
2017-07-03T07:43:09.067Z,91776
2017-07-03T07:44:09.777Z,95072
2017-07-03T07:45:10.533Z,96864
2017-07-03T07:46:11.165Z,97568
2017-07-03T07:47:11.879Z,96672
2017-07-03T07:48:12.563Z,94048
2017-07-03T07:49:13.240Z,94656
2017-07-03T07:50:13.953Z,98496
2017-07-03T07:51:14.667Z,98176
2017-07-03T07:52:15.381Z,98752
2017-07-03T07:53:16.096Z,97568
2017-07-03T07:54:16.777Z,98400
2017-07-03T07:55:17.497Z,95264
2017-07-03T07:56:18.208Z,96000
2017-07-03T07:57:18.924Z,96960
2017-07-03T07:58:19.637Z,97280
2017-07-03T07:59:20.323Z,96960
2017-07-03T08:00:21.037Z,97856
2017-07-03T08:01:21.750Z,97280
2017-07-03T08:02:22.471Z,94880
2017-07-03T08:03:23.153Z,95904
2017-07-03T08:04:23.873Z,99008
2017-07-03T08:05:24.554Z,96832
2017-07-03T08:06:25.274Z,83296
2017-07-03T08:07:25.996Z,85632
2017-07-03T08:08:26.716Z,97984
2017-07-03T08:09:27.438Z,92000
2017-07-03T08:10:28.155Z,88224
2017-07-03T08:11:28.843Z,90144
2017-07-03T08:12:29.556Z,89440
2017-07-03T08:13:30.271Z,91808
2017-07-03T08:14:30.990Z,93632
2017-07-03T08:15:31.706Z,89344
2017-07-03T08:16:32.394Z,94432
2017-07-03T08:17:33.116Z,93824
2017-07-03T08:18:33.833Z,98368
2017-07-03T08:19:34.548Z,97184
2017-07-03T08:20:35.267Z,95840
2017-07-03T08:21:35.987Z,93152
2017-07-03T08:22:36.700Z,93728
2017-07-03T08:23:37.422Z,95008
2017-07-03T08:24:38.107Z,96032
2017-07-03T08:25:38.795Z,98016
2017-07-03T08:26:39.513Z,98656
2017-07-03T08:27:40.234Z,99296
2017-07-03T08:28:40.952Z,99712
2017-07-03T08:29:41.672Z,98176
2017-07-03T08:30:42.391Z,97504
2017-07-03T08:31:43.081Z,98368
2017-07-03T08:32:43.798Z,102560
2017-07-03T08:33:44.525Z,102784
2017-07-03T08:34:45.247Z,101792
2017-07-03T08:35:45.968Z,103296
2017-07-03T08:36:46.686Z,100416
2017-07-03T08:37:47.410Z,98208
2017-07-03T08:38:48.133Z,97248
2017-07-03T08:39:48.826Z,104000
2017-07-03T08:40:49.516Z,102432
2017-07-03T08:41:50.204Z,102112
2017-07-03T08:42:50.922Z,100800
2017-07-03T08:43:51.609Z,101408
2017-07-03T08:44:52.302Z,102016
2017-07-03T08:45:53.022Z,100608
2017-07-03T08:46:53.746Z,102816
2017-07-03T08:47:54.468Z,101280
2017-07-03T08:48:55.191Z,103584
2017-07-03T08:49:55.909Z,104160
2017-07-03T08:50:56.638Z,105056
2017-07-03T08:51:57.329Z,103552
2017-07-03T08:52:58.056Z,106816
2017-07-03T08:53:58.772Z,108192
2017-07-03T08:54:59.493Z,104224
2017-07-03T08:56:00.217Z,101376
2017-07-03T08:57:00.936Z,103936
2017-07-03T08:58:01.629Z,105696
2017-07-03T08:59:02.350Z,104800
2017-07-03T09:00:03.072Z,103904
2017-07-03T09:01:03.765Z,103200
2017-07-03T09:02:04.489Z,104832
2017-07-03T09:03:05.210Z,105408
2017-07-03T09:04:05.940Z,104448
2017-07-03T09:05:06.959Z,104832
2017-07-03T09:06:07.596Z,102816
2017-07-03T09:07:08.319Z,103264
2017-07-03T09:08:09.011Z,104352
2017-07-03T09:09:09.700Z,106784
2017-07-03T09:10:10.391Z,106368
2017-07-03T09:11:11.083Z,109760
2017-07-03T09:12:11.773Z,103168
2017-07-03T09:13:12.465Z,106752
2017-07-03T09:14:13.188Z,105632
2017-07-03T09:15:13.876Z,107232
2017-07-03T09:16:14.609Z,106112
2017-07-03T09:17:15.570Z,104480
2017-07-03T09:18:16.264Z,104320
2017-07-03T09:19:16.958Z,102624
2017-07-03T09:20:17.649Z,106240
2017-07-03T09:21:18.376Z,105376
2017-07-03T09:22:19.097Z,105984
2017-07-03T09:23:19.791Z,105280
2017-07-03T09:24:20.514Z,106624
2017-07-03T09:25:21.483Z,109120
2017-07-03T09:26:22.210Z,106176
2017-07-03T09:27:22.930Z,105536
2017-07-03T09:28:23.660Z,103648
2017-07-03T09:29:24.382Z,99648
2017-07-03T09:30:25.108Z,102816
2017-07-03T09:31:25.833Z,104672
2017-07-03T09:32:26.557Z,102336
2017-07-03T09:33:27.282Z,104704
2017-07-03T09:34:27.973Z,107712
2017-07-03T09:35:28.667Z,106848
2017-07-03T09:36:29.363Z,104800
2017-07-03T09:37:30.087Z,106400
2017-07-03T09:38:30.783Z,104160
2017-07-03T09:39:31.508Z,106240
2017-07-03T09:40:32.198Z,104256
2017-07-03T09:41:32.920Z,106912
2017-07-03T09:42:33.641Z,104864
2017-07-03T09:43:34.337Z,104544
2017-07-03T09:44:35.063Z,102720
2017-07-03T09:45:35.752Z,105696
2017-07-03T09:46:36.444Z,103360
2017-07-03T09:47:37.176Z,105792
2017-07-03T09:48:37.893Z,106304
2017-07-03T09:49:38.618Z,104192
2017-07-03T09:50:39.341Z,105984
2017-07-03T09:51:40.060Z,106496
2017-07-03T09:52:40.785Z,105280
2017-07-03T09:53:41.745Z,103360
2017-07-03T09:54:42.465Z,103296
2017-07-03T09:55:43.159Z,100832
2017-07-03T09:56:43.886Z,104960
2017-07-03T09:57:44.578Z,103360
2017-07-03T09:58:45.273Z,102080
2017-07-03T09:59:45.963Z,100960
2017-07-03T10:00:46.657Z,101344
2017-07-03T10:01:47.345Z,104320
2017-07-03T10:02:48.072Z,100608
2017-07-03T10:03:48.794Z,98912
2017-07-03T10:04:49.519Z,99296
2017-07-03T10:05:50.238Z,99616
2017-07-03T10:06:50.971Z,101952
2017-07-03T10:07:51.693Z,99808
2017-07-03T10:08:52.417Z,97696
2017-07-03T10:09:53.140Z,96320
2017-07-03T10:10:53.863Z,95808
2017-07-03T10:11:54.585Z,96288
2017-07-03T10:12:55.279Z,97856
2017-07-03T10:13:55.998Z,97504
2017-07-03T10:14:56.715Z,91776
2017-07-03T10:15:57.406Z,93120
2017-07-03T10:16:58.132Z,93152
2017-07-03T10:17:58.822Z,92928
2017-07-03T10:18:59.542Z,94304
2017-07-03T10:20:00.230Z,92864
2017-07-03T10:21:00.921Z,89600
2017-07-03T10:22:01.612Z,89920
2017-07-03T10:23:02.329Z,92672
2017-07-03T10:24:03.049Z,92416
2017-07-03T10:25:03.774Z,93664
2017-07-03T10:26:04.503Z,88480
2017-07-03T10:27:05.224Z,89760
2017-07-03T10:28:05.941Z,89696
2017-07-03T10:29:06.665Z,90528
2017-07-03T10:30:07.390Z,86208
2017-07-03T10:31:08.079Z,87008
2017-07-03T10:32:08.803Z,85120
2017-07-03T10:33:09.525Z,82112
2017-07-03T10:34:10.245Z,82976
2017-07-03T10:35:10.966Z,87648
2017-07-03T10:36:11.684Z,84352
2017-07-03T10:37:12.410Z,88320
2017-07-03T10:38:13.133Z,84864
2017-07-03T10:39:13.823Z,86496
2017-07-03T10:40:14.513Z,88128
2017-07-03T10:41:15.233Z,82688
2017-07-03T10:42:15.921Z,83520
2017-07-03T10:43:16.611Z,81600
2017-07-03T10:44:17.330Z,82016
2017-07-03T10:45:18.022Z,82144
2017-07-03T10:46:18.714Z,84064
2017-07-03T10:47:19.448Z,81696
2017-07-03T10:48:20.165Z,79104
2017-07-03T10:49:20.891Z,78112
2017-07-03T10:50:21.605Z,77632
2017-07-03T10:51:22.328Z,76416
2017-07-03T10:52:23.045Z,76416
2017-07-03T10:53:23.768Z,75488
2017-07-03T10:54:24.455Z,77344
2017-07-03T10:55:25.145Z,79424
2017-07-03T10:56:25.828Z,79200
2017-07-03T10:57:26.546Z,75008
2017-07-03T10:58:27.270Z,71680
2017-07-03T10:59:27.992Z,69024
2017-07-03T11:00:28.717Z,70784
2017-07-03T11:01:29.431Z,73280
2017-07-03T11:02:30.124Z,71072
2017-07-03T11:03:30.844Z,72480
2017-07-03T11:04:31.565Z,71200
2017-07-03T11:05:32.279Z,66784
2017-07-03T11:06:33.002Z,66784
2017-07-03T11:07:33.723Z,69536
2017-07-03T11:08:34.446Z,69184
2017-07-03T11:09:35.169Z,66624
2017-07-03T11:10:35.886Z,65376
2017-07-03T11:11:36.607Z,65632
2017-07-03T11:12:37.325Z,63936
2017-07-03T11:13:38.016Z,64832
2017-07-03T11:14:38.701Z,64224
2017-07-03T11:15:39.389Z,60416
2017-07-03T11:16:40.075Z,61664
2017-07-03T11:17:40.794Z,62400
2017-07-03T11:18:41.515Z,60864
2017-07-03T11:19:42.231Z,62432
2017-07-03T11:20:42.951Z,59712
2017-07-03T11:21:43.663Z,58304
2017-07-03T11:22:44.348Z,56256
2017-07-03T11:23:45.064Z,55328
2017-07-03T11:24:45.777Z,55680
2017-07-03T11:25:46.496Z,52320
2017-07-03T11:26:47.218Z,51520
2017-07-03T11:27:47.930Z,50752
2017-07-03T11:28:48.655Z,51488
2017-07-03T11:29:49.615Z,49216
2017-07-03T11:30:50.301Z,51648
2017-07-03T11:31:51.021Z,52960
2017-07-03T11:32:51.736Z,51616
2017-07-03T11:33:52.420Z,49632
2017-07-03T11:34:53.136Z,45696
2017-07-03T11:35:53.847Z,42880
2017-07-03T11:36:54.535Z,42336
2017-07-03T11:37:55.221Z,44896
2017-07-03T11:38:55.933Z,45568
2017-07-03T11:39:56.643Z,43712
2017-07-03T11:40:57.328Z,40768
2017-07-03T11:41:58.043Z,39360
2017-07-03T11:42:58.760Z,42912
2017-07-03T11:43:59.469Z,46976
2017-07-03T11:45:00.184Z,39392
2017-07-03T11:46:00.869Z,28992
2017-07-03T11:47:01.577Z,19072
2017-07-03T11:48:02.294Z,14468
2017-07-03T11:49:03.013Z,14592
2017-07-03T11:50:03.969Z,14352
2017-07-03T11:51:04.651Z,14468
2017-07-03T11:52:05.381Z,14580
2017-07-03T11:53:06.099Z,14300
2017-07-03T11:54:06.810Z,10284
2017-07-03T11:55:07.532Z,16696
2017-07-03T11:56:08.232Z,16556
2017-07-03T11:57:08.950Z,15972
2017-07-03T11:58:09.662Z,15308
2017-07-03T11:59:10.344Z,14512
2017-07-03T12:00:11.054Z,14048
2017-07-03T12:01:11.765Z,13924
2017-07-03T12:02:12.446Z,13796
2017-07-03T12:03:13.142Z,13372
2017-07-03T12:04:13.853Z,13064
2017-07-03T12:05:14.559Z,12560
2017-07-03T12:06:15.274Z,12484
2017-07-03T12:07:15.954Z,12736
2017-07-03T12:08:16.668Z,13128
2017-07-03T12:09:17.384Z,13944
2017-07-03T12:10:18.099Z,14564
2017-07-03T12:11:18.809Z,15152
2017-07-03T12:12:19.487Z,15960
2017-07-03T12:13:20.197Z,17344
2017-07-03T12:14:21.152Z,18976
2017-07-03T12:15:21.870Z,19200
2017-07-03T12:16:22.579Z,20448
2017-07-03T12:17:23.291Z,19648
2017-07-03T12:18:23.973Z,21792
2017-07-03T12:19:24.683Z,21824
2017-07-03T12:20:25.399Z,26560
2017-07-03T12:21:26.115Z,24704
2017-07-03T12:22:26.797Z,28160
2017-07-03T12:23:27.517Z,31680
2017-07-03T12:24:28.231Z,31104
2017-07-03T12:25:28.943Z,31904
2017-07-03T12:26:29.661Z,25280
2017-07-03T12:27:30.370Z,25440
2017-07-03T12:28:31.051Z,26368
2017-07-03T12:29:31.729Z,27680
2017-07-03T12:30:32.439Z,28448
2017-07-03T12:31:33.152Z,29024
2017-07-03T12:32:33.862Z,30112
2017-07-03T12:33:34.545Z,33760
2017-07-03T12:34:35.259Z,34592
2017-07-03T12:35:35.937Z,34784
2017-07-03T12:36:36.652Z,36928
2017-07-03T12:37:37.602Z,35168
2017-07-03T12:38:38.316Z,32032
2017-07-03T12:39:39.033Z,27360
2017-07-03T12:40:39.713Z,26560
2017-07-03T12:41:40.435Z,28992
2017-07-03T12:42:41.145Z,31936
2017-07-03T12:43:41.831Z,31072
2017-07-03T12:44:42.543Z,31072
2017-07-03T12:45:43.225Z,24832
2017-07-03T12:46:43.937Z,28640
2017-07-03T12:47:44.653Z,40224
2017-07-03T12:48:45.338Z,24000
2017-07-03T12:49:46.023Z,33984
2017-07-03T12:50:46.703Z,27712
2017-07-03T12:51:47.415Z,25120
2017-07-03T12:52:48.132Z,28576
2017-07-03T12:53:48.842Z,30016
2017-07-03T12:54:49.558Z,33440
2017-07-03T12:55:50.237Z,34912
2017-07-03T12:56:50.919Z,29088
2017-07-03T12:57:51.599Z,25632
2017-07-03T12:58:52.312Z,24800
2017-07-03T12:59:53.031Z,24736
2017-07-03T13:00:53.746Z,28064
2017-07-03T13:01:54.459Z,27520
2017-07-03T13:02:55.177Z,32576
2017-07-03T13:03:55.888Z,28672
2017-07-03T13:04:56.603Z,30752
2017-07-03T13:05:57.284Z,25472
2017-07-03T13:06:57.995Z,24096
2017-07-03T13:07:58.674Z,23328
2017-07-03T13:08:59.383Z,22368
2017-07-03T13:10:00.101Z,21216
2017-07-03T13:11:00.810Z,21024
2017-07-03T13:12:01.518Z,20896
2017-07-03T13:13:02.201Z,20864
2017-07-03T13:14:02.911Z,20800
2017-07-03T13:15:03.617Z,21056
2017-07-03T13:16:04.299Z,22304
2017-07-03T13:17:04.971Z,28128
2017-07-03T13:18:05.651Z,26880
2017-07-03T13:19:06.370Z,25536
2017-07-03T13:20:07.048Z,27232
2017-07-03T13:21:07.728Z,27648
2017-07-03T13:22:08.437Z,26752
2017-07-03T13:23:09.145Z,27360
2017-07-03T13:24:09.827Z,28768
2017-07-03T13:25:10.540Z,28800
2017-07-03T13:26:11.251Z,29088
2017-07-03T13:27:11.960Z,32800
2017-07-03T13:28:12.905Z,34240
2017-07-03T13:29:13.620Z,28128
2017-07-03T13:30:14.333Z,26880
2017-07-03T13:31:15.011Z,28576
2017-07-03T13:32:15.722Z,30560
2017-07-03T13:33:16.434Z,32864
2017-07-03T13:34:17.111Z,31616
2017-07-03T13:35:17.824Z,31808
2017-07-03T13:36:18.501Z,27872
2017-07-03T13:37:19.246Z,29792
2017-07-03T13:38:19.920Z,34560
2017-07-03T13:39:20.633Z,32736
2017-07-03T13:40:21.312Z,32832
2017-07-03T13:41:22.034Z,29664
2017-07-03T13:42:22.973Z,29376
2017-07-03T13:43:23.690Z,25632
2017-07-03T13:44:24.395Z,23552
2017-07-03T13:45:25.107Z,22496
2017-07-03T13:46:25.786Z,21184
2017-07-03T13:47:26.526Z,19840
2017-07-03T13:48:27.202Z,19328
2017-07-03T13:49:27.908Z,18848
2017-07-03T13:50:28.588Z,18112
2017-07-03T13:51:29.295Z,17024
2017-07-03T13:52:30.008Z,16640
2017-07-03T13:53:30.722Z,16768
2017-07-03T13:54:31.431Z,17312
2017-07-03T13:55:32.141Z,17056
2017-07-03T13:56:32.822Z,17376
2017-07-03T13:57:33.532Z,17952
2017-07-03T13:58:34.241Z,17984
2017-07-03T13:59:34.948Z,18336
2017-07-03T14:00:35.656Z,18848
2017-07-03T14:01:36.391Z,19168
2017-07-03T14:02:37.113Z,19328
2017-07-03T14:03:37.824Z,19872
2017-07-03T14:04:38.541Z,19680
2017-07-03T14:05:39.218Z,18816
2017-07-03T14:06:39.894Z,18720
2017-07-03T14:07:40.601Z,18496
2017-07-03T14:08:41.308Z,18560
2017-07-03T14:09:42.015Z,18816
2017-07-03T14:10:42.724Z,18592
2017-07-03T14:11:43.437Z,18752
2017-07-03T14:12:44.143Z,19168
2017-07-03T14:13:44.847Z,18304
2017-07-03T14:14:45.553Z,17664
2017-07-03T14:15:46.266Z,17280
2017-07-03T14:16:46.970Z,16800
2017-07-03T14:17:47.912Z,16012
2017-07-03T14:18:48.589Z,15408
2017-07-03T14:19:49.261Z,14624
2017-07-03T14:20:49.971Z,13668
2017-07-03T14:21:50.685Z,12328
2017-07-03T14:22:51.390Z,10700
2017-07-03T14:23:52.066Z,9192
2017-07-03T14:24:52.745Z,8028
2017-07-03T14:25:53.450Z,7124
2017-07-03T14:26:54.120Z,6492
2017-07-03T14:27:54.846Z,5892
2017-07-03T14:28:55.796Z,5368
2017-07-03T14:29:56.497Z,4880
2017-07-03T14:30:57.202Z,4628
2017-07-03T14:31:57.910Z,4224
2017-07-03T14:32:58.635Z,3896
2017-07-03T14:33:59.306Z,3644
2017-07-03T14:35:00.013Z,3568
2017-07-03T14:36:00.714Z,3656
2017-07-03T14:37:01.392Z,4160
2017-07-03T14:38:02.114Z,5032
2017-07-03T14:39:02.823Z,6036
2017-07-03T14:40:03.526Z,8012
2017-07-03T14:41:04.232Z,10464
2017-07-03T14:42:05.173Z,14872
2017-07-03T14:43:05.873Z,15284
2017-07-03T14:44:06.584Z,16864
2017-07-03T14:45:07.281Z,17440
2017-07-03T14:46:08.015Z,17376
2017-07-03T14:47:08.689Z,17760
2017-07-03T14:48:09.397Z,18272
2017-07-03T14:49:10.101Z,19072
2017-07-03T14:50:10.809Z,19328
2017-07-03T14:51:11.516Z,20800
2017-07-03T14:52:12.222Z,26464
2017-07-03T14:53:12.929Z,20960
2017-07-03T14:54:13.640Z,31488
2017-07-03T14:55:14.348Z,30720
2017-07-03T14:56:15.049Z,25600
2017-07-03T14:57:15.763Z,26912
2017-07-03T14:58:16.468Z,29440
2017-07-03T14:59:17.177Z,24928
2017-07-03T15:00:17.883Z,26272
2017-07-03T15:01:18.588Z,24160
2017-07-03T15:02:19.297Z,26464
2017-07-03T15:03:20.001Z,28352
2017-07-03T15:04:20.684Z,25472
2017-07-03T15:05:21.385Z,18784
2017-07-03T15:06:22.096Z,27968
2017-07-03T15:07:22.772Z,25760
2017-07-03T15:08:23.479Z,23264
2017-07-03T15:09:24.185Z,17632
2017-07-03T15:10:24.896Z,28544
2017-07-03T15:11:25.605Z,20672
2017-07-03T15:12:26.314Z,17536
2017-07-03T15:13:27.028Z,11792
2017-07-03T15:14:27.736Z,11504
2017-07-03T15:15:28.440Z,13564
2017-07-03T15:16:29.155Z,16184
2017-07-03T15:17:29.860Z,13252
2017-07-03T15:18:30.573Z,14648
2017-07-03T15:19:31.251Z,17952
2017-07-03T15:20:31.957Z,30464
2017-07-03T15:21:32.665Z,30016
2017-07-03T15:22:33.380Z,29920
2017-07-03T15:23:34.092Z,28128
2017-07-03T15:24:34.802Z,23616
2017-07-03T15:25:35.516Z,13376
2017-07-03T15:26:36.194Z,14568
2017-07-03T15:27:36.904Z,14728
2017-07-03T15:28:37.611Z,13600
2017-07-03T15:29:38.324Z,14676
2017-07-03T15:30:39.039Z,19040
2017-07-03T15:31:39.749Z,12876
2017-07-03T15:32:40.458Z,13376
2017-07-03T15:33:41.169Z,14160
2017-07-03T15:34:41.881Z,15220
2017-07-03T15:35:42.587Z,19200
2017-07-03T15:36:43.300Z,18400
2017-07-03T15:37:44.011Z,22368
2017-07-03T15:38:44.723Z,16832
2017-07-03T15:39:45.442Z,12992
2017-07-03T15:40:46.115Z,11628
2017-07-03T15:41:46.825Z,11144
2017-07-03T15:42:47.504Z,10464
2017-07-03T15:43:48.218Z,19008
2017-07-03T15:44:48.922Z,11168
2017-07-03T15:45:49.633Z,13492
2017-07-03T15:46:50.341Z,24512
2017-07-03T15:47:51.050Z,15844
2017-07-03T15:48:51.759Z,14108
2017-07-03T15:49:52.470Z,13412
2017-07-03T15:50:53.180Z,12296
2017-07-03T15:51:53.891Z,10720
2017-07-03T15:52:54.605Z,9448
2017-07-03T15:53:55.313Z,8720
2017-07-03T15:54:56.020Z,8908
2017-07-03T15:55:56.698Z,13604
2017-07-03T15:56:57.403Z,9448
2017-07-03T15:57:58.351Z,8796
2017-07-03T15:58:59.058Z,8752
2017-07-03T15:59:59.765Z,8708
2017-07-03T16:01:00.467Z,8820
2017-07-03T16:02:01.171Z,9024
2017-07-03T16:03:01.881Z,9116
2017-07-03T16:04:02.553Z,8380
2017-07-03T16:05:03.260Z,8052
2017-07-03T16:06:03.963Z,8200
2017-07-03T16:07:04.670Z,8212
2017-07-03T16:08:05.374Z,8020
2017-07-03T16:09:06.086Z,7924
2017-07-03T16:10:06.796Z,8184
2017-07-03T16:11:07.507Z,8792
2017-07-03T16:12:08.194Z,9356
2017-07-03T16:13:08.908Z,9476
2017-07-03T16:14:09.610Z,9320
2017-07-03T16:15:10.320Z,9028
2017-07-03T16:16:11.021Z,8716
2017-07-03T16:17:11.732Z,8336
2017-07-03T16:18:12.431Z,7864
2017-07-03T16:19:13.152Z,7528
2017-07-03T16:20:13.826Z,7344
2017-07-03T16:21:14.544Z,7148
2017-07-03T16:22:15.233Z,6856
2017-07-03T16:23:15.941Z,6568
2017-07-03T16:24:16.645Z,6316
2017-07-03T16:25:17.322Z,6368
2017-07-03T16:26:18.028Z,6432
2017-07-03T16:27:18.733Z,6480
2017-07-03T16:28:19.443Z,6516
2017-07-03T16:29:20.152Z,6528
2017-07-03T16:30:20.827Z,6840
2017-07-03T16:31:21.519Z,7140
2017-07-03T16:32:22.233Z,7068
2017-07-03T16:33:22.931Z,6684
2017-07-03T16:34:23.642Z,6396
2017-07-03T16:35:24.341Z,6440
2017-07-03T16:36:25.043Z,6472
2017-07-03T16:37:25.748Z,6820
2017-07-03T16:38:26.453Z,7064
2017-07-03T16:39:27.152Z,7436
2017-07-03T16:40:27.828Z,7460
2017-07-03T16:41:28.533Z,7176
2017-07-03T16:42:29.231Z,6684
2017-07-03T16:43:29.932Z,6076
2017-07-03T16:44:30.605Z,5492
2017-07-03T16:45:31.306Z,5100
2017-07-03T16:46:32.008Z,4980
2017-07-03T17:38:07.029Z,2868
2017-07-03T17:39:07.719Z,2800
2017-07-03T17:40:08.408Z,2788
2017-07-03T17:41:09.098Z,2880
2017-07-03T17:42:09.786Z,2992
2017-07-03T17:43:10.455Z,3228
2017-07-03T17:44:11.146Z,3680
2017-07-03T17:45:11.810Z,4316
2017-07-03T17:46:12.503Z,4836
2017-07-03T17:47:13.202Z,5392
2017-07-03T17:48:13.895Z,5900
2017-07-03T17:49:14.558Z,5764
2017-07-03T17:50:15.254Z,5372
2017-07-03T17:51:15.917Z,4732
2017-07-03T17:52:16.646Z,4088
2017-07-03T17:53:17.340Z,3804
2017-07-03T17:54:18.044Z,3476
2017-07-03T17:55:18.741Z,3272
2017-07-03T17:56:19.440Z,3124
2017-07-03T17:57:20.143Z,2808
2017-07-03T17:58:20.806Z,2836
2017-07-03T17:59:21.504Z,2948
2017-07-03T18:00:22.201Z,3120
2017-07-03T18:01:22.901Z,3040
2017-07-03T18:02:23.611Z,3020
2017-07-03T18:03:24.266Z,3020
2017-07-03T18:04:24.966Z,2924
2017-07-03T18:05:25.662Z,2872
2017-07-03T18:06:26.363Z,2916
2017-07-03T18:07:27.061Z,3044
2017-07-03T18:08:27.754Z,3316
2017-07-03T18:09:28.452Z,3564
2017-07-03T18:10:29.155Z,3720
2017-07-03T18:11:29.839Z,3844
2017-07-03T18:12:30.544Z,3916
2017-07-03T18:13:31.246Z,4136
2017-07-03T18:14:31.952Z,4212
2017-07-03T18:15:32.655Z,4036
2017-07-03T18:16:33.323Z,3872
2017-07-03T18:17:34.021Z,3668
2017-07-03T18:18:34.722Z,3492
2017-07-03T18:19:35.423Z,3332
2017-07-03T18:20:36.124Z,3168
2017-07-03T18:21:36.823Z,3028
2017-07-03T18:22:37.522Z,2720
2017-07-03T18:23:38.218Z,2480
2017-07-03T18:24:39.010Z,2284
2017-07-03T18:25:39.772Z,2200
2017-07-03T18:26:40.469Z,2136
2017-07-03T18:27:41.176Z,2020
2017-07-03T18:28:41.842Z,1880
2017-07-03T18:29:42.548Z,1832
2017-07-03T18:30:43.240Z,1852
2017-07-03T18:31:43.941Z,1848
2017-07-03T18:32:44.613Z,1776
2017-07-03T18:33:45.278Z,1680
2017-07-03T18:34:45.979Z,1592
2017-07-03T18:35:46.676Z,1536
2017-07-03T18:36:47.374Z,1512
2017-07-03T18:37:48.048Z,1484
2017-07-03T18:38:48.739Z,1412
2017-07-03T18:39:49.407Z,1288
2017-07-03T18:40:50.102Z,1136
2017-07-03T18:41:50.799Z,932
2017-07-03T18:42:51.505Z,740
2017-07-03T18:43:52.201Z,600
2017-07-03T18:44:52.897Z,508
2017-07-03T18:45:53.594Z,476
2017-07-03T18:46:54.293Z,468
2017-07-03T18:47:54.986Z,460
2017-07-03T18:48:55.686Z,440
2017-07-03T18:49:56.346Z,416
2017-07-03T18:50:57.046Z,384
2017-07-03T18:51:57.740Z,336
2017-07-03T18:52:58.438Z,272
2017-07-03T18:53:59.136Z,244
2017-07-03T18:54:59.831Z,240
2017-07-03T18:56:00.525Z,248
2017-07-03T18:57:01.225Z,268
2017-07-03T18:58:01.919Z,288
2017-07-03T18:59:02.618Z,296
2017-07-03T19:00:03.315Z,300
2017-07-03T19:01:04.008Z,320
2017-07-03T19:02:04.701Z,340
2017-07-03T19:03:05.402Z,396
2017-07-03T19:04:06.095Z,460
2017-07-03T19:05:06.796Z,496
2017-07-03T19:06:07.491Z,540
2017-07-03T19:07:08.186Z,572
2017-07-03T19:08:08.880Z,716
2017-07-03T19:09:09.576Z,844
2017-07-03T19:10:10.279Z,920
2017-07-03T19:11:10.945Z,936
2017-07-03T19:12:11.644Z,920
2017-07-03T19:13:12.342Z,892
2017-07-03T19:14:13.032Z,868
2017-07-03T19:15:13.729Z,816
2017-07-03T19:16:14.431Z,748
2017-07-03T19:17:15.125Z,704
2017-07-03T19:18:15.828Z,644
2017-07-03T19:19:16.518Z,596
2017-07-03T19:20:17.211Z,592
2017-07-03T19:21:17.912Z,572
2017-07-03T19:22:18.608Z,548
2017-07-03T19:23:19.307Z,524
2017-07-03T19:24:20.005Z,476
2017-07-03T19:25:20.701Z,424
2017-07-03T19:26:21.394Z,384
2017-07-03T19:27:22.090Z,332
2017-07-03T19:28:22.783Z,292
2017-07-03T19:29:23.452Z,268
2017-07-03T19:30:24.147Z,268
2017-07-03T19:31:24.843Z,296
2017-07-03T19:32:25.539Z,304
2017-07-03T19:33:26.232Z,304
2017-07-03T19:34:26.927Z,292
2017-07-03T19:35:27.619Z,264
2017-07-03T19:36:28.317Z,236
2017-07-03T19:37:29.012Z,212
2017-07-03T19:38:29.712Z,188
2017-07-03T19:39:30.409Z,164
2017-07-03T19:40:31.089Z,152
2017-07-03T19:41:31.806Z,136
2017-07-03T19:42:32.498Z,128
2017-07-03T19:43:33.196Z,124
2017-07-03T19:44:33.895Z,120
2017-07-03T19:45:34.587Z,112
2017-07-03T19:46:35.286Z,100
2017-07-03T19:47:35.979Z,92
2017-07-03T19:48:36.678Z,84
2017-07-03T19:49:37.372Z,72
2017-07-03T19:50:38.068Z,68
2017-07-03T19:51:38.763Z,64
2017-07-03T19:52:39.452Z,64
2017-07-03T19:53:40.151Z,64
2017-07-03T19:54:40.845Z,60
2017-07-03T19:55:41.539Z,56
2017-07-03T19:56:42.235Z,52
2017-07-03T19:57:42.931Z,48
2017-07-03T19:58:43.595Z,44
2017-07-03T19:59:44.286Z,44
2017-07-03T20:00:44.981Z,44
2017-07-03T20:01:45.677Z,44
2017-07-03T20:02:46.373Z,36
2017-07-03T20:03:47.059Z,32
2017-07-03T20:04:47.761Z,28
2017-07-03T20:05:48.453Z,24
2017-07-03T20:06:49.116Z,20
2017-07-03T20:07:49.807Z,16
2017-07-03T20:08:50.506Z,12
2017-07-03T20:09:51.201Z,12
2017-07-03T20:10:51.891Z,12
2017-07-03T20:11:52.587Z,12
2017-07-03T20:12:53.280Z,12
2017-07-03T20:13:53.970Z,12
2017-07-03T20:14:54.670Z,8
2017-07-03T20:15:55.362Z,8
2017-07-03T20:16:56.053Z,8
2017-07-03T20:17:56.743Z,4
2017-07-03T20:18:57.438Z,4
2017-07-03T20:19:58.128Z,4
2017-07-03T20:20:58.823Z,4
2017-07-03T20:21:59.515Z,4
2017-07-03T20:23:00.205Z,0
2017-07-03T20:24:00.900Z,0
2017-07-03T20:25:01.593Z,4
2017-07-03T20:26:02.289Z,4
2017-07-03T20:27:02.973Z,0
2017-07-03T20:28:03.668Z,0
2017-07-03T20:29:04.357Z,0
2017-07-03T20:30:05.050Z,0
2017-07-03T20:31:05.739Z,0
2017-07-03T20:32:06.433Z,0
2017-07-03T20:33:07.125Z,0
2017-07-03T20:34:07.817Z,0
2017-07-03T20:35:08.510Z,0
2017-07-03T20:36:09.203Z,0
2017-07-03T20:37:09.894Z,0
2017-07-03T20:38:10.589Z,0
2017-07-03T20:39:11.282Z,0
2017-07-03T20:40:11.971Z,0
2017-07-03T20:41:12.664Z,0
2017-07-03T20:42:13.328Z,0
2017-07-03T20:43:14.021Z,0
2017-07-03T20:44:14.711Z,0
2017-07-03T20:45:15.400Z,0
2017-07-03T20:46:16.095Z,0
2017-07-03T20:47:16.786Z,0
2017-07-03T20:48:17.475Z,0
2017-07-03T20:49:18.163Z,0
2017-07-03T20:50:18.827Z,0
2017-07-03T20:51:19.523Z,0
2017-07-03T20:52:20.216Z,0
2017-07-03T20:53:20.905Z,0
2017-07-03T20:54:21.599Z,0
2017-07-03T20:55:22.585Z,0
2017-07-03T20:56:23.179Z,0
2017-07-03T20:57:23.871Z,0
2017-07-03T20:58:24.562Z,0
2017-07-03T20:59:25.219Z,0
2017-07-03T21:00:25.909Z,0
2017-07-03T21:01:26.600Z,0
2017-07-03T21:02:27.297Z,0
2017-07-03T21:03:27.984Z,0
2017-07-03T21:04:28.675Z,0
2017-07-03T21:05:29.363Z,0
2017-07-03T21:06:30.057Z,0
2017-07-03T21:07:30.750Z,0
2017-07-03T21:08:31.443Z,0
2017-07-03T21:09:32.137Z,0
2017-07-03T21:10:32.831Z,0
2017-07-03T21:11:33.526Z,0
2017-07-03T21:12:34.219Z,0
2017-07-03T21:13:34.912Z,0
2017-07-03T21:14:35.608Z,0
2017-07-03T21:15:36.295Z,0
2017-07-03T21:16:36.988Z,0
2017-07-03T21:17:37.680Z,0
2017-07-03T21:18:38.373Z,0
2017-07-03T21:19:39.064Z,0
2017-07-03T21:20:39.755Z,0
2017-07-03T21:21:40.440Z,0